Aviation Digital Data Service (ADDS)

Output produced by METARs form (0042 UTC 18 November 2017)
found at http://aviationweather.gov/adds/metars/
 
KDUJ 172320Z 1800/1824 14005KT P6SM SCT120 
     FM180600 14006KT P6SM BKN100 WS020/21030KT 
     FM181100 16008KT 6SM -RA OVC070 WS020/22035KT 
     FM181200 18010G20KT 4SM -RA OVC015 
     FM181500 18012G24KT 4SM -RA OVC008